Time;durP1;ratioP1;P1;durP2;ratioP2;P2;SDS_P1;SDS_P2;PMS_P1;PMS_P2;Temp;Humidity;BMP_temperature;BMP_pressure;BME280_temperature;BME280_humidity;BME280_pressure;Samples;Min_cycle;Max_cycle;Signal;HPM_P1;HPM_P2
2022/05/07 00:00:36;;;;;;;14.55;10.98;;;;;;;;;;5027998;28;20026;-62
2022/05/07 00:03:02;;;;;;;14.15;10.57;;;;;;;;;;5026574;28;20397;-62
2022/05/07 00:05:28;;;;;;;16.13;11.13;;;;;;;;;;5027206;28;20021;-62
2022/05/07 00:07:54;;;;;;;15.43;11.40;;;;;;;;;;5024839;28;20030;-62
2022/05/07 00:10:20;;;;;;;16.77;11.38;;;;;;;;;;5026682;28;20021;-62
2022/05/07 00:12:46;;;;;;;14.98;11.65;;;;;;;;;;5018376;28;20021;-62
2022/05/07 00:15:13;;;;;;;16.27;11.25;;;;;;;;;;5025836;28;20629;-62
2022/05/07 00:20:23;;;;;;;15.20;10.98;;;;;;;;;;5024335;28;20495;-62
2022/05/07 00:22:49;;;;;;;15.27;10.88;;;;;;;;;;5026078;28;20033;-62
2022/05/07 00:25:15;;;;;;;14.00;10.82;;;;;;;;;;5026137;28;20432;-62
2022/05/07 00:27:41;;;;;;;14.80;10.85;;;;;;;;;;5026876;28;20132;-62
2022/05/07 00:30:07;;;;;;;14.27;10.70;;;;;;;;;;5024877;28;20092;-62
2022/05/07 00:32:33;;;;;;;16.00;11.35;;;;;;;;;;5027048;28;20022;-62
2022/05/07 00:34:59;;;;;;;16.48;11.00;;;;;;;;;;5026646;28;20612;-62
2022/05/07 00:37:25;;;;;;;13.57;10.77;;;;;;;;;;5025231;28;20029;-62
2022/05/07 00:39:52;;;;;;;15.27;11.15;;;;;;;;;;5027857;28;20029;-62
2022/05/07 00:42:18;;;;;;;14.15;11.10;;;;;;;;;;5018731;28;20029;-62
2022/05/07 00:44:44;;;;;;;16.08;10.88;;;;;;;;;;5026865;28;20033;-62
2022/05/07 00:47:26;;;;;;;16.38;11.43;;;;;;;;;;5025373;28;20480;-62
2022/05/07 00:49:54;;;;;;;16.95;11.18;;;;;;;;;;5026247;28;20033;-62
2022/05/07 00:52:20;;;;;;;14.82;10.88;;;;;;;;;;5026434;28;20017;-63
2022/05/07 00:54:46;;;;;;;13.75;11.18;;;;;;;;;;5028857;28;20112;-62
2022/05/07 00:57:13;;;;;;;16.52;10.77;;;;;;;;;;5025007;28;20095;-62
2022/05/07 00:59:39;;;;;;;14.60;11.65;;;;;;;;;;5027902;28;20093;-63
2022/05/07 01:02:05;;;;;;;14.63;10.70;;;;;;;;;;5025009;28;20053;-62
2022/05/07 01:04:31;;;;;;;16.92;11.23;;;;;;;;;;5025192;28;20017;-61
2022/05/07 01:06:57;;;;;;;15.93;11.50;;;;;;;;;;5025193;28;20056;-61
2022/05/07 01:09:23;;;;;;;15.50;11.30;;;;;;;;;;5025336;28;20629;-62
2022/05/07 01:11:49;;;;;;;15.38;11.82;;;;;;;;;;5022777;28;20033;-62
2022/05/07 01:14:15;;;;;;;15.13;11.55;;;;;;;;;;5023866;28;20103;-62
2022/05/07 01:16:41;;;;;;;12.45;10.45;;;;;;;;;;5007778;28;20029;-62
2022/05/07 01:19:07;;;;;;;14.00;10.48;;;;;;;;;;5020585;28;20029;-62
2022/05/07 01:21:33;;;;;;;13.68;10.32;;;;;;;;;;5022861;28;20041;-62
2022/05/07 01:23:59;;;;;;;15.63;10.95;;;;;;;;;;5024888;28;20504;-62
2022/05/07 01:26:26;;;;;;;14.80;10.80;;;;;;;;;;5021345;28;20358;-62
2022/05/07 01:28:58;;;;;;;16.00;11.23;;;;;;;;;;5022791;28;20044;-62
2022/05/07 01:31:25;;;;;;;15.95;11.45;;;;;;;;;;5024956;28;20661;-62
2022/05/07 01:33:52;;;;;;;18.10;12.65;;;;;;;;;;5022832;28;20025;-62
2022/05/07 01:36:19;;;;;;;18.23;11.63;;;;;;;;;;5022712;28;20513;-62
2022/05/07 01:38:45;;;;;;;16.42;11.93;;;;;;;;;;5020495;28;20030;-62
2022/05/07 01:41:11;;;;;;;13.65;10.57;;;;;;;;;;5024768;28;20084;-62
2022/05/07 01:43:37;;;;;;;14.23;11.10;;;;;;;;;;5019712;28;20428;-62
2022/05/07 01:46:03;;;;;;;19.80;12.98;;;;;;;;;;5024806;28;20087;-62
2022/05/07 01:48:30;;;;;;;19.50;12.43;;;;;;;;;;5024406;28;20552;-62
2022/05/07 01:50:56;;;;;;;18.17;12.05;;;;;;;;;;5024229;28;20460;-62
2022/05/07 01:53:22;;;;;;;20.92;12.88;;;;;;;;;;5025901;28;20439;-62
2022/05/07 01:55:48;;;;;;;16.90;12.00;;;;;;;;;;5023698;28;20024;-62
2022/05/07 01:58:14;;;;;;;17.13;11.27;;;;;;;;;;5020575;28;20056;-62
2022/05/07 02:00:40;;;;;;;19.17;13.20;;;;;;;;;;5024207;28;20489;-62
2022/05/07 02:03:07;;;;;;;17.48;12.25;;;;;;;;;;5024757;28;20026;-62
2022/05/07 02:05:33;;;;;;;19.23;13.00;;;;;;;;;;5024418;28;20083;-62
2022/05/07 02:07:59;;;;;;;19.92;13.18;;;;;;;;;;5022502;28;20013;-61
2022/05/07 02:10:26;;;;;;;22.95;13.05;;;;;;;;;;5023127;28;20021;-62
2022/05/07 02:12:52;;;;;;;16.70;12.13;;;;;;;;;;5023082;28;20500;-62
2022/05/07 02:15:18;;;;;;;19.60;13.25;;;;;;;;;;5022966;28;20030;-61
2022/05/07 02:17:44;;;;;;;20.13;12.60;;;;;;;;;;5023127;28;20435;-62
2022/05/07 02:20:10;;;;;;;17.02;12.25;;;;;;;;;;5023146;28;20044;-61
2022/05/07 02:22:37;;;;;;;16.45;12.15;;;;;;;;;;5024252;28;20029;-62
2022/05/07 02:25:04;;;;;;;18.48;12.52;;;;;;;;;;5021753;28;20548;-61
2022/05/07 02:27:30;;;;;;;18.63;13.18;;;;;;;;;;5026851;28;20087;-62
2022/05/07 02:29:56;;;;;;;19.52;13.35;;;;;;;;;;5021335;28;20026;-62
2022/05/07 02:32:22;;;;;;;20.20;13.45;;;;;;;;;;5024107;28;20197;-62
2022/05/07 02:34:48;;;;;;;20.63;13.30;;;;;;;;;;5024192;28;20124;-62
2022/05/07 02:37:14;;;;;;;22.35;13.88;;;;;;;;;;5023532;28;20155;-62
2022/05/07 02:39:40;;;;;;;21.25;14.48;;;;;;;;;;5024333;28;20072;-62
2022/05/07 02:43:07;;;;;;;20.67;13.98;;;;;;;;;;5022446;28;20048;-61
2022/05/07 02:45:02;;;;;;;23.33;14.20;;;;;;;;;;5024769;28;20542;-62
2022/05/07 02:47:28;;;;;;;23.50;14.30;;;;;;;;;;5022706;28;20766;-62
2022/05/07 02:49:55;;;;;;;21.50;13.68;;;;;;;;;;5021787;28;20060;-62
2022/05/07 02:52:21;;;;;;;22.75;14.13;;;;;;;;;;5018363;28;20434;-61
2022/05/07 02:54:47;;;;;;;22.60;14.80;;;;;;;;;;5024828;28;20025;-62
2022/05/07 02:57:13;;;;;;;19.77;13.85;;;;;;;;;;5019840;28;20100;-62
2022/05/07 02:59:39;;;;;;;20.67;14.23;;;;;;;;;;5026527;28;20116;-62
2022/05/07 03:02:07;;;;;;;22.38;15.57;;;;;;;;;;5017344;28;20025;-62
2022/05/07 03:04:33;;;;;;;20.55;14.32;;;;;;;;;;5022537;28;20140;-61
2022/05/07 03:06:59;;;;;;;23.33;15.13;;;;;;;;;;5024023;28;20461;-62
2022/05/07 03:09:25;;;;;;;20.35;14.38;;;;;;;;;;5024155;28;20025;-62
2022/05/07 03:11:50;;;;;;;20.27;15.32;;;;;;;;;;5022087;28;20081;-62
2022/05/07 03:14:16;;;;;;;19.10;14.35;;;;;;;;;;5017935;28;20034;-62
2022/05/07 03:16:42;;;;;;;23.60;15.32;;;;;;;;;;5024526;28;20033;-62
2022/05/07 03:19:09;;;;;;;22.67;15.13;;;;;;;;;;5019473;28;20029;-62
2022/05/07 03:21:35;;;;;;;24.88;16.48;;;;;;;;;;5024114;28;20033;-62
2022/05/07 03:24:01;;;;;;;22.88;15.88;;;;;;;;;;5023715;28;20022;-61
2022/05/07 03:26:27;;;;;;;21.80;15.18;;;;;;;;;;5026604;28;20072;-62
2022/05/07 03:28:53;;;;;;;26.17;15.85;;;;;;;;;;5019521;28;20073;-62
2022/05/07 03:31:19;;;;;;;22.20;15.30;;;;;;;;;;5021301;28;20022;-62
2022/05/07 03:33:46;;;;;;;23.35;16.05;;;;;;;;;;5022062;28;20072;-62
2022/05/07 03:36:13;;;;;;;22.60;15.35;;;;;;;;;;5021259;28;20021;-61
2022/05/07 03:38:39;;;;;;;21.98;15.48;;;;;;;;;;5021976;28;20030;-62
2022/05/07 03:41:05;;;;;;;25.60;16.83;;;;;;;;;;5019897;28;20032;-61
2022/05/07 03:43:33;;;;;;;22.52;15.65;;;;;;;;;;5022760;28;20029;-62
2022/05/07 03:45:59;;;;;;;24.02;15.98;;;;;;;;;;5021220;28;20832;-62
2022/05/07 03:48:26;;;;;;;27.05;17.42;;;;;;;;;;5018546;28;20083;-62
2022/05/07 03:50:53;;;;;;;22.58;16.23;;;;;;;;;;5030394;28;20477;-62
2022/05/07 03:53:31;;;;;;;24.52;16.55;;;;;;;;;;5026550;28;20033;-62
2022/05/07 03:56:04;;;;;;;24.85;16.50;;;;;;;;;;5027785;28;20347;-62
2022/05/07 03:58:30;;;;;;;21.02;15.50;;;;;;;;;;5019903;28;20485;-62
2022/05/07 04:00:57;;;;;;;20.58;15.68;;;;;;;;;;5025939;28;20068;-62
2022/05/07 04:03:24;;;;;;;18.95;15.05;;;;;;;;;;5025359;28;20378;-62
2022/05/07 04:05:50;;;;;;;23.40;15.05;;;;;;;;;;5025512;28;20607;-61
2022/05/07 04:08:17;;;;;;;23.75;15.82;;;;;;;;;;5026769;28;20574;-62
2022/05/07 04:10:43;;;;;;;21.52;15.38;;;;;;;;;;5021637;28;20034;-62
2022/05/07 04:13:12;;;;;;;22.45;15.05;;;;;;;;;;5021642;28;20030;-62
2022/05/07 04:15:38;;;;;;;22.25;16.05;;;;;;;;;;5022587;28;20026;-62
2022/05/07 04:18:07;;;;;;;26.88;17.58;;;;;;;;;;5026257;28;20388;-61
2022/05/07 04:20:33;;;;;;;21.65;16.45;;;;;;;;;;5025716;28;20172;-62
2022/05/07 04:22:59;;;;;;;23.75;16.13;;;;;;;;;;5020698;28;20048;-62
2022/05/07 04:25:26;;;;;;;21.40;16.17;;;;;;;;;;5027389;28;20766;-62
2022/05/07 04:27:52;;;;;;;21.23;15.48;;;;;;;;;;5021407;28;20029;-62
2022/05/07 04:30:18;;;;;;;25.40;16.75;;;;;;;;;;5024433;28;20013;-61
2022/05/07 04:32:44;;;;;;;25.40;17.17;;;;;;;;;;5025422;28;20029;-62
2022/05/07 04:35:10;;;;;;;21.90;17.08;;;;;;;;;;5023406;28;20210;-63
2022/05/07 04:37:36;;;;;;;25.63;17.50;;;;;;;;;;5025612;28;20108;-62
2022/05/07 04:40:02;;;;;;;23.75;16.83;;;;;;;;;;5025337;28;20026;-61
2022/05/07 04:42:31;;;;;;;25.75;17.50;;;;;;;;;;5023498;28;20508;-61
2022/05/07 04:44:57;;;;;;;30.17;18.20;;;;;;;;;;5021632;28;20026;-62
2022/05/07 04:47:23;;;;;;;26.83;17.77;;;;;;;;;;5025704;28;20033;-62
2022/05/07 04:49:49;;;;;;;23.50;17.15;;;;;;;;;;5023246;28;20488;-62
2022/05/07 04:52:15;;;;;;;26.23;18.67;;;;;;;;;;5022982;28;20033;-63
2022/05/07 04:54:41;;;;;;;27.42;18.75;;;;;;;;;;5029953;28;20035;-62
2022/05/07 04:57:07;;;;;;;31.73;20.92;;;;;;;;;;5024491;28;20033;-62
2022/05/07 04:59:33;;;;;;;27.85;19.92;;;;;;;;;;5028132;28;20053;-62
2022/05/07 05:01:59;;;;;;;26.98;20.52;;;;;;;;;;5027338;28;20534;-62
2022/05/07 05:04:25;;;;;;;30.35;21.48;;;;;;;;;;5023840;28;20033;-62
2022/05/07 05:06:51;;;;;;;27.70;21.50;;;;;;;;;;5026945;28;20115;-62
2022/05/07 05:09:17;;;;;;;30.48;20.90;;;;;;;;;;5022926;28;20025;-62
2022/05/07 05:11:43;;;;;;;35.70;22.20;;;;;;;;;;5022012;28;20021;-62
2022/05/07 05:16:54;;;;;;;30.02;21.70;;;;;;;;;;5025115;28;20074;-62
2022/05/07 05:19:20;;;;;;;31.80;21.58;;;;;;;;;;5023777;28;20045;-62
2022/05/07 05:21:46;;;;;;;34.90;23.42;;;;;;;;;;5015118;28;20431;-62
2022/05/07 05:24:12;;;;;;;30.92;22.08;;;;;;;;;;5024656;28;20099;-62
2022/05/07 05:26:38;;;;;;;33.13;22.83;;;;;;;;;;5023392;28;20037;-62
2022/05/07 05:29:04;;;;;;;29.40;22.33;;;;;;;;;;5021533;28;20397;-62
2022/05/07 05:31:30;;;;;;;32.83;23.08;;;;;;;;;;5021601;28;20030;-62
2022/05/07 05:33:57;;;;;;;33.95;23.08;;;;;;;;;;5025040;28;20026;-62
2022/05/07 05:36:24;;;;;;;41.65;23.67;;;;;;;;;;5025368;28;20021;-62
2022/05/07 05:38:50;;;;;;;34.17;24.30;;;;;;;;;;5023609;28;20033;-62
2022/05/07 05:41:16;;;;;;;36.78;23.35;;;;;;;;;;5019611;28;20060;-62
2022/05/07 05:43:42;;;;;;;33.90;23.35;;;;;;;;;;5021216;28;20030;-62
2022/05/07 05:46:08;;;;;;;34.80;23.55;;;;;;;;;;5025326;28;20547;-62
2022/05/07 05:48:34;;;;;;;37.15;24.40;;;;;;;;;;5021295;28;20136;-62
2022/05/07 05:51:00;;;;;;;34.15;24.27;;;;;;;;;;5022698;28;20297;-62
2022/05/07 05:53:26;;;;;;;37.58;23.48;;;;;;;;;;5022793;28;20057;-62
2022/05/07 05:55:52;;;;;;;32.83;23.63;;;;;;;;;;5023360;28;20096;-62
2022/05/07 05:58:18;;;;;;;36.53;22.60;;;;;;;;;;5024141;28;20033;-62
2022/05/07 06:00:44;;;;;;;32.90;23.25;;;;;;;;;;5023130;28;20096;-62
2022/05/07 06:03:10;;;;;;;34.75;23.85;;;;;;;;;;5024019;28;20129;-63
2022/05/07 06:05:36;;;;;;;35.50;24.27;;;;;;;;;;5023305;28;20480;-62
2022/05/07 06:08:02;;;;;;;43.35;24.05;;;;;;;;;;5022799;28;20021;-62
2022/05/07 06:10:28;;;;;;;34.30;23.95;;;;;;;;;;5020668;28;20088;-62
2022/05/07 06:12:55;;;;;;;35.17;24.48;;;;;;;;;;5021932;28;20025;-62
2022/05/07 06:15:21;;;;;;;38.28;25.00;;;;;;;;;;5019483;28;20026;-63
2022/05/07 06:17:47;;;;;;;35.08;24.35;;;;;;;;;;5021706;28;20151;-62
2022/05/07 06:20:13;;;;;;;36.28;24.38;;;;;;;;;;5023071;28;20388;-63
2022/05/07 06:22:39;;;;;;;36.25;24.02;;;;;;;;;;5020557;28;20033;-63
2022/05/07 06:27:50;;;;;;;32.72;22.88;;;;;;;;;;5018967;28;20560;-63
2022/05/07 06:30:16;;;;;;;34.38;22.88;;;;;;;;;;5018568;28;20026;-63
2022/05/07 06:32:42;;;;;;;34.35;22.98;;;;;;;;;;5024058;28;20381;-63
2022/05/07 06:35:08;;;;;;;36.97;22.50;;;;;;;;;;5023965;28;20029;-64
2022/05/07 06:37:36;;;;;;;36.10;21.45;;;;;;;;;;5022942;28;20091;-63
2022/05/07 06:40:03;;;;;;;32.65;19.90;;;;;;;;;;5021964;28;20064;-63
2022/05/07 06:42:29;;;;;;;33.92;21.88;;;;;;;;;;5020386;28;20022;-63
2022/05/07 06:44:55;;;;;;;34.35;21.85;;;;;;;;;;5023770;28;20076;-63
2022/05/07 06:47:22;;;;;;;33.47;21.92;;;;;;;;;;5021824;28;20410;-63
2022/05/07 06:49:48;;;;;;;29.38;21.45;;;;;;;;;;5021990;28;20025;-63
2022/05/07 06:52:14;;;;;;;29.88;20.38;;;;;;;;;;5024668;28;20109;-63
2022/05/07 06:54:40;;;;;;;29.98;20.00;;;;;;;;;;5024176;28;20099;-63
2022/05/07 06:57:07;;;;;;;29.60;18.52;;;;;;;;;;5022243;28;20056;-63
2022/05/07 06:59:33;;;;;;;28.05;19.92;;;;;;;;;;5023518;28;20079;-63
2022/05/07 07:01:59;;;;;;;30.13;19.05;;;;;;;;;;5023717;28;20469;-64
2022/05/07 07:04:25;;;;;;;27.10;20.08;;;;;;;;;;5020134;28;20308;-63
2022/05/07 07:06:51;;;;;;;27.95;19.80;;;;;;;;;;5021731;28;20022;-63
2022/05/07 07:09:18;;;;;;;25.77;18.63;;;;;;;;;;5020795;28;20033;-63
2022/05/07 07:11:44;;;;;;;25.98;18.73;;;;;;;;;;5023372;28;20041;-63
2022/05/07 07:14:10;;;;;;;23.35;17.23;;;;;;;;;;5021583;28;20034;-63
2022/05/07 07:16:36;;;;;;;25.67;18.25;;;;;;;;;;5023030;28;20100;-63
2022/05/07 07:19:02;;;;;;;33.00;18.55;;;;;;;;;;5020138;28;20559;-64
2022/05/07 07:21:28;;;;;;;26.92;18.38;;;;;;;;;;5021430;28;20018;-63
2022/05/07 07:23:54;;;;;;;25.70;18.35;;;;;;;;;;5020575;28;20049;-63
2022/05/07 07:26:21;;;;;;;26.58;18.45;;;;;;;;;;5020934;28;20037;-64
2022/05/07 07:28:47;;;;;;;27.80;17.70;;;;;;;;;;5023986;28;20029;-63
2022/05/07 07:31:13;;;;;;;32.08;18.23;;;;;;;;;;5026109;28;20520;-63
2022/05/07 07:33:41;;;;;;;26.88;18.23;;;;;;;;;;5025039;28;20275;-64
2022/05/07 07:36:08;;;;;;;30.42;17.42;;;;;;;;;;5022420;28;20044;-64
2022/05/07 07:38:35;;;;;;;24.60;17.92;;;;;;;;;;5024290;28;20068;-64
2022/05/07 07:41:02;;;;;;;23.65;17.10;;;;;;;;;;5018754;28;20578;-64
2022/05/07 07:43:28;;;;;;;25.80;17.75;;;;;;;;;;5023008;28;20036;-64
2022/05/07 07:48:39;;;;;;;26.10;17.70;;;;;;;;;;5024287;28;20052;-63
2022/05/07 07:51:06;;;;;;;27.33;17.00;;;;;;;;;;5025951;28;20029;-63
2022/05/07 07:53:32;;;;;;;24.48;17.40;;;;;;;;;;5026835;28;20060;-63
2022/05/07 07:55:58;;;;;;;26.85;16.75;;;;;;;;;;5027558;28;20030;-63
2022/05/07 07:58:25;;;;;;;25.60;16.83;;;;;;;;;;5017621;28;20022;-63
2022/05/07 08:00:51;;;;;;;24.17;17.30;;;;;;;;;;5025681;28;20030;-63
2022/05/07 08:03:17;;;;;;;27.75;17.60;;;;;;;;;;5019511;28;20370;-63
2022/05/07 08:05:44;;;;;;;23.85;16.23;;;;;;;;;;5023457;28;20026;-63
2022/05/07 08:13:41;;;;;;;28.65;17.38;;;;;;;;;;5023582;28;20056;-64
2022/05/07 08:16:08;;;;;;;38.85;26.08;;;;;;;;;;5024892;28;20118;-65
2022/05/07 08:18:37;;;;;;;42.70;30.35;;;;;;;;;;5026358;28;20514;-64
2022/05/07 08:21:05;;;;;;;28.75;18.35;;;;;;;;;;5023662;28;20033;-63
2022/05/07 08:23:31;;;;;;;26.92;17.15;;;;;;;;;;5022349;28;20048;-63
2022/05/07 08:25:58;;;;;;;24.20;17.35;;;;;;;;;;5024005;28;20040;-63
2022/05/07 08:28:24;;;;;;;23.63;17.10;;;;;;;;;;5025618;28;20432;-63
2022/05/07 08:30:53;;;;;;;28.20;17.35;;;;;;;;;;5026077;28;20038;-64
2022/05/07 08:33:20;;;;;;;24.48;17.23;;;;;;;;;;5022407;28;20117;-63
2022/05/07 08:35:46;;;;;;;26.55;18.30;;;;;;;;;;5022566;28;20095;-63
2022/05/07 08:38:12;;;;;;;24.10;17.27;;;;;;;;;;5020736;28;20420;-63
2022/05/07 08:40:41;;;;;;;29.10;17.13;;;;;;;;;;5025163;28;20048;-64
2022/05/07 08:43:07;;;;;;;29.40;17.65;;;;;;;;;;5022150;28;20025;-63
2022/05/07 08:45:33;;;;;;;22.13;16.55;;;;;;;;;;5024926;28;20072;-63
2022/05/07 08:48:00;;;;;;;27.83;16.52;;;;;;;;;;5024443;28;20080;-63
2022/05/07 08:50:26;;;;;;;26.85;17.35;;;;;;;;;;5024900;28;20026;-63
2022/05/07 08:52:55;;;;;;;27.17;16.85;;;;;;;;;;5026218;28;20033;-63
2022/05/07 08:55:22;;;;;;;21.27;15.45;;;;;;;;;;5023972;28;20133;-63
2022/05/07 08:57:48;;;;;;;23.60;15.88;;;;;;;;;;5023426;28;20021;-63
2022/05/07 09:00:16;;;;;;;20.92;14.80;;;;;;;;;;5021721;28;20477;-63
2022/05/07 09:02:47;;;;;;;22.98;13.85;;;;;;;;;;5023396;28;20521;-64
2022/05/07 09:05:16;;;;;;;19.40;13.38;;;;;;;;;;5022412;28;20029;-64
2022/05/07 09:07:57;;;;;;;20.92;13.30;;;;;;;;;;5019001;28;20017;-64
2022/05/07 09:10:31;;;;;;;19.13;12.73;;;;;;;;;;5020145;28;20040;-63
2022/05/07 09:13:10;;;;;;;18.35;12.90;;;;;;;;;;5022644;28;20056;-63
2022/05/07 09:15:56;;;;;;;24.05;13.98;;;;;;;;;;5021024;28;20029;-63
2022/05/07 09:18:23;;;;;;;23.17;14.20;;;;;;;;;;5019673;28;20542;-64
2022/05/07 09:21:15;;;;;;;22.70;13.38;;;;;;;;;;5024785;28;20025;-64
2022/05/07 09:23:42;;;;;;;22.30;14.07;;;;;;;;;;5022444;28;20022;-64
2022/05/07 09:26:07;;;;;;;23.50;15.25;;;;;;;;;;5024196;28;20030;-64
2022/05/07 09:28:35;;;;;;;21.23;14.52;;;;;;;;;;5021341;28;20038;-64
2022/05/07 09:31:01;;;;;;;23.05;14.40;;;;;;;;;;5024694;28;20032;-64
2022/05/07 09:33:34;;;;;;;20.08;13.55;;;;;;;;;;5016866;28;20055;-64
2022/05/07 09:36:12;;;;;;;21.02;14.30;;;;;;;;;;5019517;28;20021;-64
2022/05/07 09:38:38;;;;;;;24.67;14.40;;;;;;;;;;5016424;28;20029;-64
2022/05/07 09:41:05;;;;;;;29.88;14.32;;;;;;;;;;5020730;28;20491;-64
2022/05/07 09:43:32;;;;;;;24.15;15.15;;;;;;;;;;5019772;28;20049;-64
2022/05/07 09:45:58;;;;;;;21.63;14.07;;;;;;;;;;5022052;28;20083;-64
2022/05/07 09:48:24;;;;;;;20.13;13.30;;;;;;;;;;5019693;28;20033;-64
2022/05/07 09:50:50;;;;;;;21.63;13.80;;;;;;;;;;5022347;28;20104;-64
2022/05/07 09:58:51;;;;;;;22.23;13.40;;;;;;;;;;5011807;28;20035;-64
2022/05/07 10:01:36;;;;;;;20.05;13.45;;;;;;;;;;5017930;28;20030;-64
2022/05/07 10:04:20;;;;;;;19.48;11.82;;;;;;;;;;5033283;28;20013;-64
2022/05/07 10:06:46;;;;;;;20.40;12.05;;;;;;;;;;5023376;28;20512;-64
2022/05/07 10:09:12;;;;;;;19.63;12.93;;;;;;;;;;5022431;28;20041;-64
2022/05/07 10:11:39;;;;;;;17.40;12.38;;;;;;;;;;5021482;28;20037;-64
2022/05/07 10:14:05;;;;;;;20.55;12.40;;;;;;;;;;5018109;28;20044;-64
2022/05/07 10:16:31;;;;;;;17.92;12.32;;;;;;;;;;5023494;28;20438;-64
2022/05/07 10:19:09;;;;;;;25.08;13.98;;;;;;;;;;5021240;28;20049;-63
2022/05/07 10:21:35;;;;;;;20.90;13.07;;;;;;;;;;5017541;28;20021;-63
2022/05/07 10:24:01;;;;;;;23.38;12.60;;;;;;;;;;5020825;28;20045;-62
2022/05/07 10:26:39;;;;;;;22.92;13.80;;;;;;;;;;5019570;28;20513;-62
2022/05/07 10:29:06;;;;;;;20.67;13.57;;;;;;;;;;5017695;28;20043;-62
2022/05/07 10:31:44;;;;;;;26.42;15.32;;;;;;;;;;5019975;28;20028;-62
2022/05/07 10:34:10;;;;;;;30.52;16.00;;;;;;;;;;5019270;28;20033;-63
2022/05/07 10:36:36;;;;;;;30.35;17.02;;;;;;;;;;5021301;28;20025;-63
2022/05/07 10:39:08;;;;;;;22.70;14.43;;;;;;;;;;5022363;28;20354;-64
2022/05/07 10:41:46;;;;;;;25.50;15.33;;;;;;;;;;5019477;28;20069;-64
2022/05/07 10:44:12;;;;;;;27.50;16.30;;;;;;;;;;5022544;28;20021;-64
2022/05/07 10:46:38;;;;;;;24.90;14.15;;;;;;;;;;5021726;28;20083;-63
2022/05/07 10:49:05;;;;;;;22.35;14.05;;;;;;;;;;5021382;28;20519;-63
2022/05/07 10:51:32;;;;;;;26.90;15.68;;;;;;;;;;5022488;28;20036;-63
2022/05/07 10:54:03;;;;;;;21.92;14.57;;;;;;;;;;5017900;28;20048;-63
2022/05/07 10:56:45;;;;;;;22.42;14.50;;;;;;;;;;5023198;28;20030;-63
2022/05/07 10:59:11;;;;;;;22.30;15.32;;;;;;;;;;5028713;28;20033;-63
2022/05/07 11:01:38;;;;;;;23.00;16.05;;;;;;;;;;5023060;28;20392;-62
2022/05/07 11:04:05;;;;;;;22.70;16.02;;;;;;;;;;5025410;28;20025;-62
2022/05/07 11:06:51;;;;;;;24.83;15.98;;;;;;;;;;5026127;28;20030;-63
2022/05/07 11:09:18;;;;;;;23.42;16.45;;;;;;;;;;5029109;28;20029;-63
2022/05/07 11:11:46;;;;;;;28.45;16.88;;;;;;;;;;5026283;28;20029;-63
2022/05/07 11:14:23;;;;;;;30.67;19.80;;;;;;;;;;5029158;28;20018;-63
2022/05/07 11:16:49;;;;;;;27.30;17.63;;;;;;;;;;5025498;28;20027;-60
2022/05/07 11:19:25;;;;;;;25.33;16.77;;;;;;;;;;5023440;28;20112;-62
2022/05/07 11:21:52;;;;;;;26.80;17.90;;;;;;;;;;5027339;28;20491;-61
2022/05/07 11:24:22;;;;;;;24.17;18.38;;;;;;;;;;5029155;28;20040;-62
2022/05/07 11:26:52;;;;;;;25.80;18.27;;;;;;;;;;5027057;28;20488;-62
2022/05/07 11:29:18;;;;;;;24.60;16.48;;;;;;;;;;5028215;28;20014;-61
2022/05/07 11:31:53;;;;;;;23.63;17.30;;;;;;;;;;5026677;28;20029;-62
2022/05/07 11:34:28;;;;;;;21.42;15.70;;;;;;;;;;5029682;28;20051;-61
2022/05/07 11:36:53;;;;;;;18.02;13.68;;;;;;;;;;5027200;28;20029;-62
2022/05/07 11:39:21;;;;;;;19.48;13.40;;;;;;;;;;5026771;28;20028;-62
2022/05/07 11:41:53;;;;;;;20.10;13.52;;;;;;;;;;5028671;28;20067;-62
2022/05/07 11:47:21;;;;;;;18.95;12.50;;;;;;;;;;5027382;28;20048;-62
2022/05/07 11:49:57;;;;;;;16.45;11.90;;;;;;;;;;5025045;28;20349;-63
2022/05/07 11:52:27;;;;;;;17.77;12.75;;;;;;;;;;5028497;28;20029;-62
2022/05/07 11:54:53;;;;;;;20.98;12.38;;;;;;;;;;5028708;28;20025;-61
2022/05/07 11:57:29;;;;;;;21.35;16.85;;;;;;;;;;5025922;28;20028;-62
2022/05/07 11:59:55;;;;;;;24.25;16.67;;;;;;;;;;5025918;28;20032;-61
2022/05/07 12:02:21;;;;;;;19.40;15.50;;;;;;;;;;5025221;28;20060;-61
2022/05/07 12:04:56;;;;;;;24.70;18.35;;;;;;;;;;5021221;28;20058;-61
2022/05/07 12:07:22;;;;;;;27.17;17.52;;;;;;;;;;5022914;28;20040;-62
2022/05/07 12:09:48;;;;;;;24.75;17.85;;;;;;;;;;5022860;28;20033;-61
2022/05/07 12:12:14;;;;;;;26.73;18.27;;;;;;;;;;5025595;28;20033;-63
2022/05/07 12:14:40;;;;;;;23.73;16.83;;;;;;;;;;5020420;28;20021;-62
2022/05/07 12:19:51;;;;;;;22.30;17.55;;;;;;;;;;5026171;28;20041;-61
2022/05/07 12:30:30;;;;;;;21.27;15.95;;;;;;;;;;5026150;28;20032;-61
2022/05/07 12:32:56;;;;;;;19.75;14.55;;;;;;;;;;5025484;28;20029;-62
2022/05/07 12:35:22;;;;;;;17.83;13.70;;;;;;;;;;5023147;28;20033;-61
2022/05/07 12:37:48;;;;;;;21.20;17.27;;;;;;;;;;5020975;28;20109;-61
2022/05/07 12:40:14;;;;;;;23.85;17.25;;;;;;;;;;5022735;28;20513;-60
2022/05/07 12:42:40;;;;;;;27.27;16.48;;;;;;;;;;5022078;28;20026;-62
2022/05/07 12:45:07;;;;;;;18.65;13.80;;;;;;;;;;5025247;28;20408;-62
2022/05/07 12:47:33;;;;;;;23.20;17.10;;;;;;;;;;5025194;28;20104;-61
2022/05/07 12:49:59;;;;;;;22.00;16.65;;;;;;;;;;5022322;28;20592;-62
2022/05/07 12:52:25;;;;;;;18.58;14.85;;;;;;;;;;5026040;28;20036;-62
2022/05/07 12:54:52;;;;;;;18.85;15.30;;;;;;;;;;5024678;28;22167;-61
2022/05/07 12:57:18;;;;;;;20.50;15.93;;;;;;;;;;5025238;28;20028;-61
2022/05/07 12:59:44;;;;;;;18.83;15.05;;;;;;;;;;5019682;28;20421;-61
2022/05/07 13:02:12;;;;;;;19.35;14.45;;;;;;;;;;5024245;28;20386;-62
2022/05/07 13:04:38;;;;;;;17.80;13.35;;;;;;;;;;5021471;28;20036;-62
2022/05/07 13:07:04;;;;;;;21.80;15.43;;;;;;;;;;5023664;28;20033;-62
2022/05/07 13:09:31;;;;;;;20.30;15.40;;;;;;;;;;5022724;28;20143;-61
2022/05/07 13:11:57;;;;;;;19.15;13.95;;;;;;;;;;5024130;28;20278;-61
2022/05/07 13:14:24;;;;;;;19.23;14.27;;;;;;;;;;5022696;28;20021;-62
2022/05/07 13:16:50;;;;;;;20.25;14.50;;;;;;;;;;5022243;28;20028;-61
2022/05/07 13:19:16;;;;;;;16.05;12.43;;;;;;;;;;5023279;28;20052;-62
2022/05/07 13:21:42;;;;;;;17.88;12.80;;;;;;;;;;5023146;28;20017;-61
2022/05/07 13:24:12;;;;;;;18.15;12.05;;;;;;;;;;5018302;28;20056;-61
2022/05/07 13:26:39;;;;;;;15.88;12.20;;;;;;;;;;5023183;28;20469;-62
2022/05/07 13:29:05;;;;;;;19.25;13.70;;;;;;;;;;5004528;28;20030;-61
2022/05/07 13:31:31;;;;;;;24.15;15.10;;;;;;;;;;5023718;28;20055;-60
2022/05/07 13:33:57;;;;;;;18.45;14.38;;;;;;;;;;5024067;28;20061;-61
2022/05/07 13:36:23;;;;;;;23.02;14.60;;;;;;;;;;5022152;28;20060;-60
2022/05/07 13:38:49;;;;;;;18.77;13.90;;;;;;;;;;5024427;28;20037;-62
2022/05/07 13:41:20;;;;;;;20.77;13.77;;;;;;;;;;5023750;28;20022;-62
2022/05/07 13:43:46;;;;;;;19.77;13.50;;;;;;;;;;5019932;28;20052;-61
2022/05/07 13:46:12;;;;;;;18.85;11.52;;;;;;;;;;5023890;28;20029;-61
2022/05/07 13:48:38;;;;;;;17.42;12.25;;;;;;;;;;5022856;28;20029;-62
2022/05/07 13:51:05;;;;;;;15.25;11.80;;;;;;;;;;5025154;28;20463;-62
2022/05/07 13:53:31;;;;;;;16.90;12.18;;;;;;;;;;5023626;28;20029;-61
2022/05/07 13:55:57;;;;;;;17.05;11.88;;;;;;;;;;5025067;28;20024;-62
2022/05/07 13:58:23;;;;;;;13.75;10.27;;;;;;;;;;5019768;28;20022;-62
2022/05/07 14:00:51;;;;;;;15.65;9.25;;;;;;;;;;5023413;28;20087;-62
2022/05/07 14:03:17;;;;;;;15.55;10.38;;;;;;;;;;5022398;28;20021;-63
2022/05/07 14:05:44;;;;;;;12.75;9.23;;;;;;;;;;5024420;28;20060;-62
2022/05/07 14:08:10;;;;;;;13.82;9.05;;;;;;;;;;5021071;28;20522;-62
2022/05/07 14:10:36;;;;;;;13.30;9.65;;;;;;;;;;5018209;28;20029;-61
2022/05/07 14:13:02;;;;;;;13.48;9.77;;;;;;;;;;5020955;28;20026;-62
2022/05/07 14:15:28;;;;;;;16.88;10.00;;;;;;;;;;5020714;28;20382;-61
2022/05/07 14:17:55;;;;;;;18.65;7.78;;;;;;;;;;5022812;28;20025;-61
2022/05/07 14:20:21;;;;;;;13.20;9.45;;;;;;;;;;5023918;28;20022;-61
2022/05/07 14:22:47;;;;;;;10.52;8.63;;;;;;;;;;5023596;28;20026;-61
2022/05/07 14:25:13;;;;;;;17.77;11.77;;;;;;;;;;5020412;28;20117;-61
2022/05/07 14:27:42;;;;;;;18.50;12.02;;;;;;;;;;5021134;28;20327;-61
2022/05/07 14:30:08;;;;;;;25.65;12.25;;;;;;;;;;5020833;28;20029;-61
2022/05/07 14:32:38;;;;;;;21.48;14.25;;;;;;;;;;5020538;28;20517;-62
2022/05/07 14:35:04;;;;;;;23.33;15.32;;;;;;;;;;5020372;28;20060;-62
2022/05/07 14:37:30;;;;;;;20.45;14.27;;;;;;;;;;5022576;28;20017;-62
2022/05/07 14:39:56;;;;;;;24.73;14.82;;;;;;;;;;5016978;28;20021;-61
2022/05/07 14:42:22;;;;;;;22.90;15.63;;;;;;;;;;5022268;28;20075;-62
2022/05/07 14:44:49;;;;;;;21.95;15.43;;;;;;;;;;5020380;28;20385;-61
2022/05/07 14:47:15;;;;;;;19.33;14.23;;;;;;;;;;5021775;28;20658;-61
2022/05/07 14:49:41;;;;;;;19.27;14.65;;;;;;;;;;5021039;28;20013;-61
2022/05/07 14:52:07;;;;;;;18.27;13.02;;;;;;;;;;5021254;28;20056;-63